createdAt,value
2023-01-30T00:01:33.848Z,79.18
2023-01-30T00:04:06.707Z,78.94
2023-01-30T00:06:39.437Z,78.37
2023-01-30T00:09:14.049Z,77.82
2023-01-30T00:11:44.926Z,77.75
2023-01-30T00:14:18.016Z,78.55
2023-01-30T00:16:53.094Z,79.12
2023-01-30T00:19:25.635Z,78.81
2023-01-30T00:21:58.076Z,78.40
2023-01-30T00:24:30.851Z,78.55
2023-01-30T00:27:03.215Z,78.74
2023-01-30T00:29:35.711Z,78.70
2023-01-30T00:32:11.082Z,78.13
2023-01-30T00:34:46.020Z,78.05
2023-01-30T00:37:20.084Z,78.44
2023-01-30T00:39:52.520Z,78.27
2023-01-30T00:42:42.773Z,78.69
2023-01-30T00:45:33.638Z,78.57
2023-01-30T00:48:06.728Z,78.01
2023-01-30T00:50:43.616Z,77.49
2023-01-30T00:53:18.728Z,77.36
2023-01-30T00:55:53.421Z,77.14
2023-01-30T00:58:27.696Z,76.79
2023-01-30T01:01:00.031Z,76.77
2023-01-30T01:03:32.650Z,76.54
2023-01-30T01:06:06.490Z,76.00
2023-01-30T01:08:39.264Z,75.86
2023-01-30T01:11:24.522Z,75.64
2023-01-30T01:13:58.838Z,75.14
2023-01-30T01:16:36.236Z,75.81
2023-01-30T01:19:08.902Z,75.29
2023-01-30T01:21:41.323Z,74.52
2023-01-30T01:24:16.374Z,73.89
2023-01-30T01:26:49.078Z,74.40
2023-01-30T01:29:21.532Z,74.57
2023-01-30T01:31:54.059Z,74.80
2023-01-30T01:34:28.716Z,74.71
2023-01-30T01:37:01.153Z,74.27
2023-01-30T01:39:47.344Z,74.70
2023-01-30T01:42:21.004Z,74.75
2023-01-30T01:45:15.016Z,73.75
2023-01-30T01:47:55.429Z,73.83
2023-01-30T01:50:35.828Z,74.32
2023-01-30T01:53:09.786Z,74.09
2023-01-30T01:55:44.846Z,73.71
2023-01-30T01:58:20.903Z,73.35
2023-01-30T02:00:54.056Z,73.18
2023-01-30T02:03:31.297Z,73.23
2023-01-30T02:06:05.912Z,73.59
2023-01-30T02:08:41.397Z,73.45
2023-01-30T02:11:18.820Z,73.90
2023-01-30T02:13:52.862Z,73.76
2023-01-30T02:16:26.845Z,73.42
2023-01-30T02:18:59.958Z,73.23
2023-01-30T02:21:45.706Z,73.76
2023-01-30T02:24:42.184Z,73.78
2023-01-30T02:27:51.948Z,73.67
2023-01-30T02:30:58.128Z,73.71
2023-01-30T02:33:41.446Z,72.83
2023-01-30T02:36:23.448Z,72.76
2023-01-30T02:39:08.086Z,72.54
2023-01-30T02:41:50.350Z,73.12
2023-01-30T02:44:31.427Z,73.74
2023-01-30T02:47:09.399Z,73.45
2023-01-30T02:49:47.264Z,73.83
2023-01-30T02:52:20.324Z,73.62
2023-01-30T02:54:52.796Z,73.32
2023-01-30T02:57:27.376Z,73.06
2023-01-30T03:00:06.276Z,73.35
2023-01-30T03:03:07.126Z,73.36
2023-01-30T03:05:53.366Z,73.18
2023-01-30T03:08:38.798Z,72.78
2023-01-30T03:11:12.619Z,72.58
2023-01-30T03:13:55.126Z,72.33
2023-01-30T03:16:32.044Z,72.79
2023-01-30T03:19:06.475Z,72.78
2023-01-30T03:21:44.687Z,73.43
2023-01-30T03:24:18.144Z,73.30
2023-01-30T03:26:57.886Z,73.09
2023-01-30T03:29:30.603Z,72.95
2023-01-30T03:32:03.321Z,73.01
2023-01-30T03:34:36.436Z,72.93
2023-01-30T03:37:09.096Z,73.58
2023-01-30T03:39:41.918Z,73.71
2023-01-30T03:42:16.302Z,72.84
2023-01-30T03:44:49.106Z,72.46
2023-01-30T03:47:21.451Z,72.87
2023-01-30T03:49:54.876Z,73.31
2023-01-30T03:52:27.832Z,73.24
2023-01-30T03:55:00.631Z,73.54
2023-01-30T03:57:33.313Z,73.11
2023-01-30T04:00:09.895Z,73.37
2023-01-30T04:02:54.953Z,73.54
2023-01-30T04:05:28.337Z,74.00
2023-01-30T04:08:05.000Z,74.72
2023-01-30T04:10:37.730Z,74.64
2023-01-30T04:13:10.355Z,73.71
2023-01-30T04:15:42.942Z,74.50
2023-01-30T04:18:49.064Z,74.51
2023-01-30T04:21:26.177Z,74.20
2023-01-30T04:23:58.781Z,75.47
2023-01-30T04:26:31.833Z,75.54
2023-01-30T04:29:04.573Z,75.30
2023-01-30T04:31:40.717Z,75.44
2023-01-30T04:34:40.075Z,75.25
2023-01-30T04:37:12.562Z,75.46
2023-01-30T04:39:45.131Z,76.41
2023-01-30T04:42:17.941Z,75.89
2023-01-30T04:45:03.171Z,75.18
2023-01-30T04:47:38.659Z,76.48
2023-01-30T04:50:13.183Z,76.93
2023-01-30T04:52:45.654Z,76.52
2023-01-30T04:55:18.605Z,76.63
2023-01-30T04:57:51.781Z,76.62
2023-01-30T05:00:24.655Z,77.55
2023-01-30T05:03:00.814Z,77.02
2023-01-30T05:05:34.255Z,77.44
2023-01-30T05:08:07.293Z,78.14
2023-01-30T05:10:39.727Z,78.00
2023-01-30T05:13:12.312Z,78.46
2023-01-30T05:15:46.238Z,78.20
2023-01-30T05:18:18.614Z,78.49
2023-01-30T05:20:52.071Z,78.47
2023-01-30T05:23:24.439Z,79.26
2023-01-30T05:25:56.984Z,79.03
2023-01-30T05:28:30.257Z,78.95
2023-01-30T05:31:06.588Z,78.90
2023-01-30T05:33:39.393Z,80.24
2023-01-30T05:36:17.981Z,81.33
2023-01-30T05:38:53.412Z,81.31
2023-01-30T05:41:26.209Z,81.79
2023-01-30T05:43:58.582Z,82.36
2023-01-30T05:46:31.030Z,82.12
2023-01-30T05:49:04.373Z,82.22
2023-01-30T05:51:36.928Z,82.23
2023-01-30T05:54:09.347Z,82.00
2023-01-30T05:56:41.896Z,82.75
2023-01-30T05:59:15.622Z,82.20
2023-01-30T06:01:47.635Z,82.31
2023-01-30T06:04:20.132Z,82.05
2023-01-30T06:06:53.248Z,81.72
2023-01-30T06:09:25.634Z,81.37
2023-01-30T06:11:58.006Z,81.36
2023-01-30T06:14:30.569Z,81.23
2023-01-30T06:17:03.408Z,81.51
2023-01-30T06:19:36.036Z,81.27
2023-01-30T06:22:08.897Z,80.58
2023-01-30T06:24:41.683Z,80.94
2023-01-30T06:27:14.536Z,80.85
2023-01-30T06:29:49.600Z,80.61
2023-01-30T06:32:22.917Z,80.21
2023-01-30T06:34:55.858Z,79.83
2023-01-30T06:37:28.267Z,80.42
2023-01-30T06:40:00.659Z,80.31
2023-01-30T06:42:33.387Z,80.58
2023-01-30T06:45:06.877Z,81.42
2023-01-30T06:47:48.175Z,81.54
2023-01-30T06:50:22.001Z,82.19
2023-01-30T06:52:55.528Z,83.00
2023-01-30T06:55:29.672Z,82.09
2023-01-30T06:58:07.741Z,82.11
2023-01-30T07:00:42.684Z,82.18
2023-01-30T07:03:17.127Z,81.72
2023-01-30T07:05:50.123Z,81.88
2023-01-30T07:08:24.210Z,82.16
2023-01-30T07:10:57.282Z,81.97
2023-01-30T07:13:29.956Z,82.53
2023-01-30T07:16:02.600Z,83.62
2023-01-30T07:18:34.915Z,83.87
2023-01-30T07:21:07.524Z,83.76
2023-01-30T07:23:39.979Z,83.59
2023-01-30T07:26:12.783Z,83.77
2023-01-30T07:28:45.377Z,83.55
2023-01-30T07:31:18.076Z,83.54
2023-01-30T07:33:50.462Z,84.67
2023-01-30T07:36:22.952Z,84.54
2023-01-30T07:38:55.715Z,84.76
2023-01-30T07:41:28.168Z,84.67
2023-01-30T07:44:00.542Z,84.51
2023-01-30T07:46:35.221Z,84.94
2023-01-30T07:49:08.970Z,85.11
2023-01-30T07:51:41.510Z,85.22
2023-01-30T07:54:14.339Z,85.60
2023-01-30T07:56:46.935Z,85.98
2023-01-30T07:59:19.714Z,85.82
2023-01-30T08:01:52.455Z,86.45
2023-01-30T08:04:25.152Z,87.32
2023-01-30T08:06:57.539Z,87.42
2023-01-30T08:09:30.185Z,87.48
2023-01-30T08:12:02.677Z,87.38
2023-01-30T08:14:35.460Z,87.85
2023-01-30T08:17:08.474Z,87.42
2023-01-30T08:19:42.065Z,87.22
2023-01-30T08:22:15.529Z,87.11
2023-01-30T08:24:47.955Z,87.08
2023-01-30T08:27:20.532Z,87.01
2023-01-30T08:29:53.052Z,87.26
2023-01-30T08:32:25.649Z,87.52
2023-01-30T08:34:58.278Z,86.89
2023-01-30T08:37:30.750Z,86.64
2023-01-30T08:40:03.154Z,87.03
2023-01-30T08:42:35.638Z,87.70
2023-01-30T08:45:10.587Z,87.39
2023-01-30T08:47:43.425Z,87.40
2023-01-30T08:50:16.340Z,87.33
2023-01-30T08:52:48.963Z,87.46
2023-01-30T08:55:22.112Z,87.56
2023-01-30T08:57:57.166Z,87.86
2023-01-30T09:00:30.835Z,87.62
2023-01-30T09:03:03.651Z,87.52
2023-01-30T09:05:36.084Z,87.27
2023-01-30T09:08:08.690Z,87.12
2023-01-30T09:10:41.329Z,86.78
2023-01-30T09:13:15.128Z,87.22
2023-01-30T09:15:47.798Z,87.06
2023-01-30T09:18:20.329Z,87.03
2023-01-30T09:20:53.864Z,87.36
2023-01-30T09:23:28.766Z,87.92
2023-01-30T09:26:02.963Z,87.93
2023-01-30T09:28:37.041Z,87.87
2023-01-30T09:31:09.803Z,87.67
2023-01-30T09:33:42.595Z,87.40
2023-01-30T09:36:15.152Z,87.19
2023-01-30T09:38:48.103Z,87.07
2023-01-30T09:41:49.809Z,87.36
2023-01-30T09:44:42.288Z,86.94
2023-01-30T09:47:18.405Z,86.40
2023-01-30T09:50:05.112Z,86.34
2023-01-30T09:52:47.759Z,86.73
2023-01-30T09:55:23.721Z,87.25
2023-01-30T09:58:01.014Z,87.35
2023-01-30T10:00:35.914Z,86.56
2023-01-30T10:03:14.438Z,86.48
2023-01-30T10:05:50.150Z,86.24
2023-01-30T10:08:43.835Z,86.10
2023-01-30T10:11:34.000Z,86.39
2023-01-30T10:14:21.959Z,86.65
2023-01-30T10:17:06.693Z,86.37
2023-01-30T10:19:59.567Z,86.24
2023-01-30T10:22:43.942Z,86.59
2023-01-30T10:25:25.782Z,86.71
2023-01-30T10:28:02.967Z,86.66
2023-01-30T10:30:36.806Z,86.33
2023-01-30T10:33:20.513Z,86.18
2023-01-30T10:35:59.449Z,86.39
2023-01-30T10:38:37.712Z,86.14
2023-01-30T10:41:19.156Z,85.64
2023-01-30T10:43:59.862Z,85.74
2023-01-30T10:47:03.971Z,85.82
2023-01-30T10:49:45.930Z,85.80
2023-01-30T10:52:36.020Z,85.66
2023-01-30T10:55:31.539Z,85.70
2023-01-30T10:58:17.696Z,85.91
2023-01-30T11:00:57.407Z,85.82
2023-01-30T11:03:39.280Z,86.23
2023-01-30T11:06:17.683Z,86.50
2023-01-30T11:08:50.817Z,86.81
2023-01-30T11:11:35.028Z,85.94
2023-01-30T11:14:09.924Z,85.70
2023-01-30T11:16:48.470Z,84.93
2023-01-30T11:19:24.549Z,85.17
2023-01-30T11:22:01.995Z,85.78
2023-01-30T11:24:41.403Z,85.64
2023-01-30T11:27:18.820Z,85.17
2023-01-30T11:29:52.583Z,85.94
2023-01-30T11:32:28.610Z,86.27
2023-01-30T11:35:19.866Z,85.87
2023-01-30T11:37:54.974Z,85.79
2023-01-30T11:40:31.553Z,85.52
2023-01-30T11:43:12.378Z,85.50
2023-01-30T11:45:50.155Z,85.94
2023-01-30T11:48:33.485Z,86.14
2023-01-30T11:51:21.333Z,85.68
2023-01-30T11:53:58.765Z,85.19
2023-01-30T11:56:36.380Z,85.17
2023-01-30T11:59:27.816Z,84.73
2023-01-30T12:02:13.287Z,85.34
2023-01-30T12:04:51.183Z,85.29
2023-01-30T12:07:26.808Z,85.15
2023-01-30T12:10:00.550Z,86.10
2023-01-30T12:12:39.409Z,85.95
2023-01-30T12:15:21.934Z,85.74
2023-01-30T12:18:04.589Z,85.22
2023-01-30T12:20:48.062Z,85.20
2023-01-30T12:23:27.027Z,85.62
2023-01-30T12:26:06.675Z,85.43
2023-01-30T12:28:47.714Z,85.60
2023-01-30T12:31:25.852Z,85.74
2023-01-30T12:33:59.193Z,85.23
2023-01-30T12:36:43.974Z,84.80
2023-01-30T12:39:37.379Z,83.45
2023-01-30T12:42:36.913Z,83.18
2023-01-30T12:45:22.504Z,83.48
2023-01-30T12:48:22.058Z,82.89
2023-01-30T12:51:13.789Z,82.36
2023-01-30T12:53:59.605Z,81.78
2023-01-30T12:56:50.666Z,81.74
2023-01-30T12:59:28.401Z,81.78
2023-01-30T13:02:30.070Z,81.41
2023-01-30T13:05:21.577Z,81.43
2023-01-30T13:08:09.643Z,81.64
2023-01-30T13:10:49.887Z,81.76
2023-01-30T13:13:31.205Z,81.47
2023-01-30T13:16:12.929Z,81.83
2023-01-30T13:18:50.239Z,81.97
2023-01-30T13:21:29.647Z,81.45
2023-01-30T13:24:15.163Z,81.55
2023-01-30T13:26:49.926Z,81.75
2023-01-30T13:29:25.072Z,82.44
2023-01-30T13:32:01.459Z,82.55
2023-01-30T13:34:39.946Z,82.93
2023-01-30T13:37:15.272Z,82.59
2023-01-30T13:39:52.621Z,83.00
2023-01-30T13:42:34.288Z,83.11
2023-01-30T13:45:10.335Z,83.22
2023-01-30T13:48:01.960Z,83.15
2023-01-30T13:50:56.627Z,83.00
2023-01-30T13:53:36.290Z,83.80
2023-01-30T13:56:39.621Z,84.48
2023-01-30T13:59:18.777Z,86.02
2023-01-30T14:02:18.505Z,86.43
2023-01-30T14:04:53.087Z,86.18
2023-01-30T14:07:35.229Z,86.53
2023-01-30T14:10:17.393Z,86.05
2023-01-30T14:12:53.104Z,85.87
2023-01-30T14:15:29.193Z,85.99
2023-01-30T14:18:08.709Z,85.65
2023-01-30T14:20:45.888Z,85.90
2023-01-30T14:23:30.084Z,85.89
2023-01-30T14:26:03.155Z,85.83
2023-01-30T14:28:51.859Z,86.28
2023-01-30T14:31:50.922Z,86.68
2023-01-30T14:34:50.220Z,86.65
2023-01-30T14:38:01.416Z,86.61
2023-01-30T14:40:44.506Z,86.39
2023-01-30T14:43:40.123Z,85.88
2023-01-30T14:46:54.248Z,85.84
2023-01-30T14:49:34.222Z,86.02
2023-01-30T14:52:23.832Z,85.60
2023-01-30T14:54:56.286Z,84.20
2023-01-30T14:57:32.925Z,83.41
2023-01-30T15:00:18.992Z,83.15
2023-01-30T15:02:55.913Z,82.52
2023-01-30T15:05:33.940Z,81.65
2023-01-30T15:08:17.388Z,80.67
2023-01-30T15:11:11.245Z,80.89
2023-01-30T15:13:55.304Z,80.61
2023-01-30T15:16:52.002Z,81.12
2023-01-30T15:19:48.954Z,81.65
2023-01-30T15:22:29.540Z,80.89
2023-01-30T15:25:20.921Z,80.69
2023-01-30T15:28:03.148Z,80.65
2023-01-30T15:30:50.083Z,80.48
2023-01-30T15:33:30.928Z,80.95
2023-01-30T15:36:21.897Z,82.01
2023-01-30T15:39:02.140Z,83.23
2023-01-30T15:41:41.130Z,84.35
2023-01-30T15:44:55.024Z,84.69
2023-01-30T15:48:00.799Z,84.90
2023-01-30T15:50:33.324Z,85.77
2023-01-30T15:53:10.283Z,85.31
2023-01-30T15:55:45.748Z,84.85
2023-01-30T15:58:22.057Z,84.74
2023-01-30T16:00:57.771Z,84.74
2023-01-30T16:03:37.886Z,84.66
2023-01-30T16:06:24.781Z,84.68
2023-01-30T16:09:02.953Z,84.87
2023-01-30T16:11:41.721Z,84.27
2023-01-30T16:14:18.339Z,83.77
2023-01-30T16:16:52.733Z,83.68
2023-01-30T16:19:30.050Z,84.39
2023-01-30T16:22:05.918Z,84.40
2023-01-30T16:24:39.886Z,84.94
2023-01-30T16:27:21.263Z,85.85
2023-01-30T16:29:57.986Z,85.91
2023-01-30T16:32:32.118Z,85.79
2023-01-30T16:35:33.322Z,85.58
2023-01-30T16:38:19.465Z,86.02
2023-01-30T16:40:52.142Z,86.50
2023-01-30T16:43:27.354Z,86.84
2023-01-30T16:46:46.359Z,87.31
2023-01-30T16:49:22.225Z,86.69
2023-01-30T16:52:04.161Z,86.52
2023-01-30T16:54:42.449Z,85.76
2023-01-30T16:57:25.454Z,84.80
2023-01-30T16:59:58.859Z,84.72
2023-01-30T17:02:37.617Z,85.17
2023-01-30T17:05:27.939Z,84.74
2023-01-30T17:08:00.922Z,84.96
2023-01-30T17:11:04.343Z,84.83
2023-01-30T17:13:38.920Z,85.12
2023-01-30T17:16:34.252Z,85.62
2023-01-30T17:19:05.002Z,84.98
2023-01-30T17:21:45.668Z,84.48
2023-01-30T17:24:22.036Z,83.67
2023-01-30T17:26:59.332Z,83.68
2023-01-30T17:29:48.838Z,83.32
2023-01-30T17:32:21.903Z,83.07
2023-01-30T17:34:56.191Z,83.73
2023-01-30T17:37:27.405Z,83.28
2023-01-30T17:39:59.877Z,83.55
2023-01-30T17:42:32.384Z,83.64
2023-01-30T17:45:05.859Z,83.63
2023-01-30T17:47:39.095Z,83.56
2023-01-30T17:50:16.094Z,83.67
2023-01-30T17:52:49.151Z,83.49
2023-01-30T17:55:22.504Z,83.11
2023-01-30T17:57:56.822Z,82.89
2023-01-30T18:00:31.815Z,83.25
2023-01-30T18:03:04.941Z,83.31
2023-01-30T18:05:39.540Z,83.63
2023-01-30T18:08:14.523Z,83.31
2023-01-30T18:10:47.544Z,83.36
2023-01-30T18:13:20.656Z,83.24
2023-01-30T18:15:54.336Z,83.37
2023-01-30T18:18:27.048Z,83.47
2023-01-30T18:20:59.640Z,83.47
2023-01-30T18:23:32.382Z,82.73
2023-01-30T18:26:05.049Z,82.71
2023-01-30T18:28:38.102Z,83.27
2023-01-30T18:31:11.188Z,82.99
2023-01-30T18:33:46.081Z,82.44
2023-01-30T18:36:18.488Z,82.11
2023-01-30T18:38:51.917Z,82.66
2023-01-30T18:41:25.860Z,82.88
2023-01-30T18:43:59.679Z,82.68
2023-01-30T18:46:33.109Z,82.14
2023-01-30T18:49:06.513Z,81.59
2023-01-30T18:51:40.408Z,81.09
2023-01-30T18:54:12.916Z,81.28
2023-01-30T18:56:45.587Z,81.00
2023-01-30T18:59:18.177Z,80.69
2023-01-30T19:01:50.854Z,80.77
2023-01-30T19:04:23.492Z,79.97
2023-01-30T19:06:56.772Z,80.08
2023-01-30T19:09:29.646Z,80.08
2023-01-30T19:12:23.086Z,79.79
2023-01-30T19:14:55.651Z,79.71
2023-01-30T19:17:28.337Z,79.77
2023-01-30T19:20:02.512Z,79.75
2023-01-30T19:22:35.992Z,79.92
2023-01-30T19:25:10.647Z,80.27
2023-01-30T19:27:43.796Z,80.12
2023-01-30T19:30:18.165Z,80.79
2023-01-30T19:32:52.704Z,81.65
2023-01-30T19:35:25.226Z,81.91
2023-01-30T19:38:00.455Z,81.60
2023-01-30T19:40:33.657Z,81.35
2023-01-30T19:43:10.866Z,81.91
2023-01-30T19:45:44.249Z,82.09
2023-01-30T19:48:17.047Z,82.40
2023-01-30T19:50:51.158Z,82.22
2023-01-30T19:53:22.869Z,82.47
2023-01-30T19:55:55.882Z,82.40
2023-01-30T19:58:28.368Z,82.65
2023-01-30T20:01:10.019Z,82.56
2023-01-30T20:03:43.865Z,82.91
2023-01-30T20:06:18.211Z,83.09
2023-01-30T20:08:56.124Z,83.30
2023-01-30T20:11:32.140Z,83.52
2023-01-30T20:14:07.424Z,83.76
2023-01-30T20:16:42.967Z,84.13
2023-01-30T20:19:19.083Z,83.66
2023-01-30T20:21:51.561Z,83.49
2023-01-30T20:24:24.188Z,83.69
2023-01-30T20:26:56.714Z,83.80
2023-01-30T20:29:29.279Z,83.90
2023-01-30T20:32:02.359Z,83.57
2023-01-30T20:34:35.973Z,83.14
2023-01-30T20:37:08.905Z,83.33
2023-01-30T20:39:41.436Z,83.94
2023-01-30T20:42:15.891Z,84.02
2023-01-30T20:44:48.245Z,83.50
2023-01-30T20:47:20.941Z,83.28
2023-01-30T20:49:53.452Z,82.88
2023-01-30T20:52:26.283Z,82.93
2023-01-30T20:54:58.679Z,83.25
2023-01-30T20:57:31.625Z,83.18
2023-01-30T21:00:05.676Z,83.14
2023-01-30T21:02:39.303Z,83.43
2023-01-30T21:05:12.381Z,83.46
2023-01-30T21:07:45.210Z,83.11
2023-01-30T21:10:18.752Z,82.77
2023-01-30T21:12:51.776Z,82.48
2023-01-30T21:15:24.296Z,82.87
2023-01-30T21:17:57.050Z,82.58
2023-01-30T21:20:29.497Z,82.48
2023-01-30T21:23:02.471Z,82.41
2023-01-30T21:25:36.109Z,82.40
2023-01-30T21:28:09.276Z,82.52
2023-01-30T21:30:43.146Z,82.86
2023-01-30T21:33:16.700Z,82.58
2023-01-30T21:35:49.352Z,82.67
2023-01-30T21:38:40.203Z,82.30
2023-01-30T21:41:34.539Z,82.14
2023-01-30T21:44:10.656Z,82.05
2023-01-30T21:46:45.687Z,82.33
2023-01-30T21:49:19.087Z,82.05
2023-01-30T21:51:52.284Z,81.56
2023-01-30T21:54:25.507Z,82.13
2023-01-30T21:56:58.344Z,81.70
2023-01-30T21:59:32.657Z,81.92
2023-01-30T22:02:05.013Z,81.37
2023-01-30T22:04:40.022Z,80.95
2023-01-30T22:07:12.474Z,80.70
2023-01-30T22:09:45.038Z,80.29
2023-01-30T22:12:20.118Z,80.54
2023-01-30T22:14:52.735Z,80.15
2023-01-30T22:17:25.206Z,79.71
2023-01-30T22:19:58.302Z,79.74
2023-01-30T22:22:33.435Z,79.65
2023-01-30T22:25:06.294Z,79.75
2023-01-30T22:27:38.602Z,79.04
2023-01-30T22:30:14.072Z,78.59
2023-01-30T22:32:46.796Z,78.32
2023-01-30T22:35:19.998Z,78.00
2023-01-30T22:37:52.643Z,77.81
2023-01-30T22:40:25.012Z,77.73
2023-01-30T22:42:57.584Z,77.14
2023-01-30T22:45:30.165Z,76.30
2023-01-30T22:48:02.774Z,76.42
2023-01-30T22:50:35.173Z,76.64
2023-01-30T22:53:07.798Z,76.28
2023-01-30T22:55:40.470Z,75.96
2023-01-30T22:58:12.819Z,75.69
2023-01-30T23:00:45.160Z,75.67
2023-01-30T23:03:17.956Z,74.80
2023-01-30T23:05:59.346Z,74.49
2023-01-30T23:08:34.242Z,74.21
2023-01-30T23:11:13.304Z,73.99
2023-01-30T23:13:47.832Z,73.46
2023-01-30T23:16:22.729Z,73.27
2023-01-30T23:18:59.421Z,73.01
2023-01-30T23:21:36.109Z,73.06
2023-01-30T23:24:11.897Z,72.72
2023-01-30T23:26:46.212Z,72.35
2023-01-30T23:29:21.265Z,72.13
2023-01-30T23:31:53.660Z,71.92
2023-01-30T23:34:25.992Z,71.75
2023-01-30T23:36:59.336Z,71.80
2023-01-30T23:39:31.805Z,71.41
2023-01-30T23:42:04.262Z,71.61
2023-01-30T23:44:37.230Z,71.10
2023-01-30T23:47:10.324Z,71.41
2023-01-30T23:49:42.690Z,71.06
2023-01-30T23:52:15.193Z,70.84
2023-01-30T23:54:48.405Z,71.13
2023-01-30T23:57:20.827Z,70.89
2023-01-30T23:59:53.133Z,70.54
